createdAt,value
2023-04-23T00:04:40.184Z,100617.94
2023-04-23T00:09:44.989Z,100596.97
2023-04-23T00:14:47.424Z,100618.53
2023-04-23T00:19:49.613Z,100611.22
2023-04-23T00:24:51.950Z,100610.84
2023-04-23T00:29:54.180Z,100610.47
2023-04-23T00:34:56.982Z,100588.63
2023-04-23T00:39:59.354Z,100594.97
2023-04-23T00:45:02.508Z,100593.41
2023-04-23T00:50:05.171Z,100592.94
2023-04-23T00:55:08.981Z,100590.91
2023-04-23T01:00:14.343Z,100567.56
2023-04-23T01:05:18.534Z,100595.56
2023-04-23T01:10:21.862Z,100533.63
2023-04-23T01:15:24.572Z,100582.03
2023-04-23T01:20:27.008Z,100594.97
2023-04-23T01:25:29.877Z,100594.63
2023-04-23T01:30:32.294Z,100585.81
2023-04-23T01:35:36.719Z,100595.38
2023-04-23T01:40:39.154Z,100603.81
2023-04-23T01:45:42.245Z,100561.22
2023-04-23T01:50:44.487Z,100574.34
2023-04-23T01:55:48.384Z,100574.41
2023-04-23T02:00:51.196Z,100576.44
2023-04-23T02:05:55.680Z,100609.28
2023-04-23T02:10:57.958Z,100594.44
2023-04-23T02:16:00.655Z,100598.69
2023-04-23T02:21:04.972Z,100571.59
2023-04-23T02:26:08.270Z,100582.78
2023-04-23T02:31:10.719Z,100621.41
2023-04-23T02:36:13.116Z,100625.69
2023-04-23T02:41:15.496Z,100585.59
2023-04-23T02:46:17.701Z,100597.59
2023-04-23T02:51:19.855Z,100599.25
2023-04-23T02:56:21.997Z,100625.06
2023-04-23T03:01:24.251Z,100623.25
2023-04-23T03:06:27.067Z,100636.94
2023-04-23T03:11:29.247Z,100615.28
2023-04-23T03:16:32.498Z,100614.84
2023-04-23T03:21:34.847Z,100624.81
2023-04-23T03:26:37.099Z,100631.03
2023-04-23T03:31:39.444Z,100631.13
2023-04-23T03:36:41.717Z,100608.34
2023-04-23T03:41:43.958Z,100625.47
2023-04-23T03:46:46.146Z,100642.50
2023-04-23T03:51:48.380Z,100639.44
2023-04-23T03:56:50.647Z,100610.34
2023-04-23T04:01:52.919Z,100613.63
2023-04-23T04:06:55.170Z,100633.75
2023-04-23T04:11:57.365Z,100667.31
2023-04-23T04:16:59.669Z,100669.16
2023-04-23T04:22:04.063Z,100669.44
2023-04-23T04:27:06.433Z,100670.38
2023-04-23T04:32:10.002Z,100680.47
2023-04-23T04:37:12.157Z,100679.72
2023-04-23T04:42:14.752Z,100683.34
2023-04-23T04:47:17.277Z,100690.91
2023-04-23T04:52:20.373Z,100711.50
2023-04-23T04:57:23.323Z,100718.00
2023-04-23T05:02:27.021Z,100698.16
2023-04-23T05:07:29.352Z,100699.72
2023-04-23T05:12:31.731Z,100695.00
2023-04-23T05:17:33.913Z,100691.84
2023-04-23T05:22:36.146Z,100693.59
2023-04-23T05:27:38.934Z,100727.66
2023-04-23T05:32:41.429Z,100728.19
2023-04-23T05:37:43.626Z,100723.91
2023-04-23T05:42:45.924Z,100721.97
2023-04-23T05:47:48.122Z,100733.63
2023-04-23T05:52:50.449Z,100749.06
2023-04-23T05:57:52.703Z,100750.31
2023-04-23T06:02:54.990Z,100761.63
2023-04-23T06:07:57.257Z,100753.16
2023-04-23T06:12:59.573Z,100752.41
2023-04-23T06:18:01.954Z,100746.00
2023-04-23T06:23:04.229Z,100760.19
2023-04-23T06:28:06.848Z,100731.44
2023-04-23T06:33:09.606Z,100751.72
2023-04-23T06:38:11.833Z,100755.63
2023-04-23T06:43:15.151Z,100742.38
2023-04-23T06:48:18.893Z,100683.38
2023-04-23T06:53:22.518Z,100751.00
2023-04-23T06:58:31.407Z,100760.09
2023-04-23T07:03:33.994Z,100767.19
2023-04-23T07:08:36.321Z,100759.41
2023-04-23T07:13:39.323Z,100760.88
2023-04-23T07:18:41.689Z,100748.25
2023-04-23T07:23:43.926Z,100748.28
2023-04-23T07:28:47.836Z,100731.28
2023-04-23T07:33:50.166Z,100728.38
2023-04-23T07:38:52.480Z,100737.47
2023-04-23T07:43:54.873Z,100748.06
2023-04-23T07:48:57.155Z,100723.69
2023-04-23T07:53:59.392Z,100746.38
2023-04-23T07:59:01.760Z,100749.66
2023-04-23T08:04:04.236Z,100724.97
2023-04-23T08:09:06.873Z,100735.84
2023-04-23T08:14:09.215Z,100644.44
2023-04-23T08:19:12.240Z,100644.06
2023-04-23T08:24:14.475Z,100726.59
2023-04-23T08:29:16.846Z,100738.69
2023-04-23T08:34:19.012Z,100729.88
2023-04-23T08:39:21.277Z,100699.84
2023-04-23T08:44:26.362Z,100708.59
2023-04-23T08:49:33.864Z,100709.75
2023-04-23T08:54:41.649Z,100717.44
2023-04-23T08:59:44.713Z,100722.75
2023-04-23T09:04:49.565Z,100712.59
2023-04-23T09:09:53.498Z,100706.34
2023-04-23T09:14:56.258Z,100695.66
2023-04-23T09:19:59.558Z,100723.63
2023-04-23T09:25:02.628Z,100714.06
2023-04-23T09:30:08.627Z,100702.59
2023-04-23T09:35:14.254Z,100707.88
2023-04-23T09:40:20.429Z,100693.97
2023-04-23T09:45:23.194Z,100676.28
2023-04-23T09:50:39.756Z,100674.03
2023-04-23T09:55:44.069Z,100688.09
2023-04-23T10:00:46.489Z,100668.13
2023-04-23T10:06:00.288Z,100637.78
2023-04-23T10:11:17.785Z,100669.22
2023-04-23T10:16:26.819Z,100662.00
2023-04-23T10:21:42.935Z,100667.44
2023-04-23T10:26:58.410Z,100653.16
2023-04-23T10:32:03.210Z,100637.34
2023-04-23T10:37:06.629Z,100660.00
2023-04-23T10:42:08.994Z,100628.38
2023-04-23T10:47:17.149Z,100644.06
2023-04-23T10:52:22.249Z,100630.44
2023-04-23T10:57:25.925Z,100625.69
2023-04-23T11:02:45.393Z,100626.22
2023-04-23T11:13:24.634Z,100616.41
2023-04-23T11:18:28.164Z,100604.25
2023-04-23T11:23:34.511Z,100616.00
2023-04-23T11:28:39.646Z,100612.63
2023-04-23T11:33:41.842Z,100598.19
2023-04-23T11:38:44.062Z,100592.41
2023-04-23T11:43:47.237Z,100613.94
2023-04-23T11:48:49.702Z,100604.13
2023-04-23T11:53:51.864Z,100606.84
2023-04-23T11:59:04.151Z,100605.41
2023-04-23T12:04:17.389Z,100612.16
2023-04-23T12:09:22.871Z,100598.97
2023-04-23T12:14:30.670Z,100581.22
2023-04-23T12:19:33.140Z,100584.50
2023-04-23T12:24:51.781Z,100562.38
2023-04-23T12:30:04.113Z,100566.09
2023-04-23T12:35:10.294Z,100557.84
2023-04-23T12:40:12.548Z,100528.56
2023-04-23T12:45:14.703Z,100538.34
2023-04-23T12:50:17.002Z,100531.59
2023-04-23T12:55:19.298Z,100512.06
2023-04-23T13:00:21.642Z,100530.34
2023-04-23T13:05:24.544Z,100495.69
2023-04-23T13:10:26.875Z,100513.00
2023-04-23T13:15:29.216Z,100507.53
2023-04-23T13:20:31.438Z,100506.41
2023-04-23T13:25:33.680Z,100488.88
2023-04-23T13:30:35.973Z,100488.56
2023-04-23T13:35:38.310Z,100490.22
2023-04-23T13:40:40.655Z,100477.00
2023-04-23T13:45:43.019Z,100467.22
2023-04-23T13:50:45.798Z,100464.94
2023-04-23T13:55:48.019Z,100459.19
2023-04-23T14:00:50.472Z,100457.09
2023-04-23T14:05:52.690Z,100446.97
2023-04-23T14:10:54.945Z,100434.84
2023-04-23T14:15:57.193Z,100449.25
2023-04-23T14:20:59.459Z,100421.41
2023-04-23T14:26:09.588Z,100441.59
2023-04-23T14:31:11.809Z,100439.34
2023-04-23T14:36:14.325Z,100457.91
2023-04-23T14:41:18.472Z,100449.94
2023-04-23T14:46:20.722Z,100450.72
2023-04-23T14:51:23.690Z,100442.41
2023-04-23T14:56:26.015Z,100435.00
2023-04-23T15:01:28.314Z,100431.69
2023-04-23T15:06:30.612Z,100456.66
2023-04-23T15:11:33.462Z,100435.81
2023-04-23T15:16:47.713Z,100424.78
2023-04-23T15:21:51.320Z,100448.66
2023-04-23T15:26:55.091Z,100431.13
2023-04-23T15:31:58.708Z,100438.78
2023-04-23T15:37:01.115Z,100408.34
2023-04-23T15:42:03.742Z,100411.28
2023-04-23T15:47:06.067Z,100412.16
2023-04-23T15:52:08.438Z,100409.19
2023-04-23T15:57:11.124Z,100414.38
2023-04-23T16:02:20.007Z,100410.06
2023-04-23T16:07:22.406Z,100370.28
2023-04-23T16:12:24.860Z,100361.53
2023-04-23T16:17:28.352Z,100418.81
2023-04-23T16:22:30.788Z,100397.81
2023-04-23T16:27:33.306Z,100417.13
2023-04-23T16:32:36.331Z,100426.13
2023-04-23T16:37:38.943Z,100433.16
2023-04-23T16:42:41.414Z,100422.75
2023-04-23T16:47:46.480Z,100421.63
2023-04-23T16:52:48.698Z,100417.88
2023-04-23T16:57:50.949Z,100430.03
2023-04-23T17:02:53.337Z,100429.69
2023-04-23T17:07:55.726Z,100417.13
2023-04-23T17:12:57.948Z,100441.59
2023-04-23T17:18:00.263Z,100431.22
2023-04-23T17:23:03.159Z,100426.00
2023-04-23T17:28:05.355Z,100447.06
2023-04-23T17:33:07.633Z,100433.31
2023-04-23T17:38:10.034Z,100401.75
2023-04-23T17:43:12.640Z,100452.41
2023-04-23T17:48:16.161Z,100475.50
2023-04-23T17:53:18.862Z,100450.59
2023-04-23T17:58:21.869Z,100477.47
2023-04-23T18:03:24.284Z,100468.16
2023-04-23T18:08:26.786Z,100481.38
2023-04-23T18:13:29.143Z,100479.03
2023-04-23T18:18:31.316Z,100493.84
2023-04-23T18:23:36.236Z,100482.75
2023-04-23T18:28:38.579Z,100510.91
2023-04-23T18:33:52.634Z,100506.97
2023-04-23T18:38:55.019Z,100513.19
2023-04-23T18:44:00.162Z,100486.94
2023-04-23T18:49:05.133Z,100536.75
2023-04-23T18:54:07.637Z,100524.81
2023-04-23T18:59:10.228Z,100518.13
2023-04-23T19:04:12.759Z,100526.97
2023-04-23T19:09:15.270Z,100531.72
2023-04-23T19:14:19.414Z,100530.50
2023-04-23T19:19:21.740Z,100551.66
2023-04-23T19:24:23.995Z,100563.34
2023-04-23T19:29:26.328Z,100538.75
2023-04-23T19:34:28.588Z,100535.47
2023-04-23T19:39:30.913Z,100554.28
2023-04-23T19:44:33.500Z,100529.56
2023-04-23T19:49:35.807Z,100540.47
2023-04-23T19:54:38.798Z,100558.69
2023-04-23T19:59:41.300Z,100544.47
2023-04-23T20:04:46.056Z,100557.69
2023-04-23T20:09:48.345Z,100560.25
2023-04-23T20:14:50.898Z,100564.13
2023-04-23T20:19:54.211Z,100541.69
2023-04-23T20:24:56.919Z,100575.09
2023-04-23T20:29:59.570Z,100568.66
2023-04-23T20:35:02.640Z,100538.13
2023-04-23T20:40:06.152Z,100569.19
2023-04-23T20:45:09.014Z,100570.00
2023-04-23T20:50:11.814Z,100572.69
2023-04-23T20:55:14.084Z,100560.09
2023-04-23T21:00:16.703Z,100568.47
2023-04-23T21:05:18.945Z,100562.06
2023-04-23T21:10:27.561Z,100550.19
2023-04-23T21:15:31.967Z,100549.31
2023-04-23T21:20:34.267Z,100531.63
2023-04-23T21:25:36.524Z,100568.34
2023-04-23T21:31:01.785Z,100583.72
2023-04-23T21:36:04.836Z,100564.97
2023-04-23T21:41:07.975Z,100564.59
2023-04-23T21:46:11.484Z,100520.66
2023-04-23T21:51:13.866Z,100562.88
2023-04-23T21:56:16.905Z,100571.09
2023-04-23T22:01:19.186Z,100527.53
2023-04-23T22:06:21.680Z,100516.75
2023-04-23T22:11:24.078Z,100541.00
2023-04-23T22:16:28.759Z,100528.72
2023-04-23T22:21:31.771Z,100533.50
2023-04-23T22:26:36.434Z,100501.00
2023-04-23T22:31:38.782Z,100514.84
2023-04-23T22:36:43.579Z,100530.16
2023-04-23T22:41:46.276Z,100537.44
2023-04-23T22:46:49.202Z,100533.13
2023-04-23T22:51:51.888Z,100515.91
2023-04-23T22:56:54.393Z,100487.09
2023-04-23T23:01:56.750Z,100522.91
2023-04-23T23:06:59.102Z,100503.28
2023-04-23T23:12:03.502Z,100514.03
2023-04-23T23:17:08.409Z,100507.56
2023-04-23T23:22:10.714Z,100518.41
2023-04-23T23:27:12.938Z,100525.53
2023-04-23T23:32:15.114Z,100505.72
2023-04-23T23:37:17.809Z,100530.34
2023-04-23T23:42:20.038Z,100504.84
2023-04-23T23:47:22.411Z,100524.31
2023-04-23T23:52:24.738Z,100470.66
2023-04-23T23:57:26.958Z,100488.88
